Flight Track Log - Related Links

Times and Time Zones

All times are in EDT time to prevent confusion due to time zone crossing. See the FDX1570 flight status page for this flight to view local times or setup timezone preferences in your user account.

Time Position Orientation Groundspeed Altitude Reporting Facility
EDT Latitude Longitude Course Direction KTS MPH feet Rate Location/Type
Tue 04:26:25 AM 35.0167 -89.9667 158° South 174 200 1,200  Level KMEM
Tue 04:27:47 AM 34.9500 -89.9333 158° South 263 303 4,200 2,493 Climbing KMEM
Tue 04:28:47 AM 34.9833 -89.8333 68° East 291 335 7,100 2,561 Climbing KMEM
Tue 04:30:31 AM 35.0369 -89.6900 65° Northeast 330 380 11,200 2,195 Climbing Memphis Center
Tue 04:31:31 AM 35.0944 -89.5678 60° Northeast 351 404 13,100 2,300 Climbing Memphis Center
Tue 04:32:31 AM 35.1625 -89.4581 53° Northeast 389 448 15,800 2,700 Climbing Memphis Center
Tue 04:33:31 AM 35.2325 -89.3403 54° Northeast 410 472 18,500 2,400 Climbing Memphis Center
Tue 04:34:31 AM 35.3044 -89.2222 53° Northeast 424 488 20,600 2,350 Climbing Memphis Center
Tue 04:35:31 AM 35.3764 -89.0992 54° Northeast 437 503 23,200 1,960 Climbing Memphis Center
Tue 04:41:09 AM 35.8240 -88.3420 54° Northeast 524 603 33,600 1,846 Climbing FlightAware ADS-B
Tue 04:41:48 AM 35.8810 -88.2450 54° Northeast 527 606 34,800 1,794 Climbing FlightAware ADS-B
Tue 04:42:56 AM 35.9790 -88.0770 54° Northeast 525 604 36,800 1,722 Climbing FlightAware ADS-B
Tue 04:43:43 AM 36.0470 -87.9610 54° Northeast 520 598 38,100 1,379 Climbing FlightAware ADS-B
Tue 04:44:23 AM 36.1020 -87.8670 54° Northeast 520 598 38,800 628 Climbing FlightAware ADS-B
Tue 04:45:09 AM 36.1670 -87.7550 54° Northeast 523 602 39,000 145 Climbing FlightAware ADS-B
Tue 04:45:46 AM 36.1850 -87.7240 54° Northeast 524 603 39,000  Level FlightAware ADS-B
Tue 04:46:30 AM 36.2810 -87.5570 54° Northeast 524 603 39,000  Level FlightAware ADS-B
Tue 04:47:13 AM 36.3440 -87.4490 54° Northeast 523 602 39,000  Level FlightAware ADS-B
Tue 04:47:55 AM 36.4020 -87.3490 54° Northeast 524 603 39,000  Level FlightAware ADS-B
Tue 04:48:39 AM 36.4640 -87.2390 55° Northeast 524 603 39,000  Level FlightAware ADS-B
Tue 04:49:21 AM 36.5230 -87.1350 55° Northeast 525 604 39,000  Level FlightAware ADS-B
Tue 04:50:01 AM 36.5780 -87.0390 54° Northeast 526 605 39,000  Level FlightAware ADS-B
Tue 04:50:41 AM 36.6350 -86.9380 55° Northeast 527 606 39,000  Level FlightAware ADS-B
Tue 04:51:11 AM 36.6770 -86.8630 55° Northeast 529 609 39,000  Level FlightAware ADS-B
Tue 04:51:23 AM 36.6940 -86.8334 54° Northeast 529 609 39,000  Level FlightAware ADS-B
Tue 04:51:53 AM 36.7368 -86.7583 55° Northeast 531 611 39,000  Level FlightAware ADS-B
Tue 04:52:24 AM 36.7797 -86.6833 54° Northeast 532 612 39,000  Level FlightAware ADS-B
Tue 04:52:54 AM 36.8231 -86.6052 55° Northeast 533 613 39,000  Level FlightAware ADS-B
Tue 04:53:25 AM 36.8656 -86.5294 55° Northeast 535 616 39,000  Level FlightAware ADS-B
Tue 04:54:02 AM 36.9190 -86.4334 55° Northeast 535 616 39,000  Level FlightAware ADS-B
Tue 04:54:42 AM 36.9750 -86.3320 55° Northeast 535 616 39,000  Level FlightAware ADS-B
Tue 04:55:16 AM 37.0180 -86.2550 55° Northeast 536 617 39,000  Level FlightAware ADS-B
Tue 04:56:14 AM 37.0020 -86.2830 234° Southwest 537 618 39,000  Level FlightAware ADS-B
Tue 04:56:54 AM 37.1560 -86.0070 55° Northeast 538 619 39,000  Level FlightAware ADS-B
Tue 04:57:39 AM 37.2210 -85.8890 55° Northeast 539 620 39,000  Level FlightAware ADS-B
Tue 04:58:22 AM 37.2830 -85.7750 56° Northeast 540 621 39,000  Level FlightAware ADS-B
Tue 04:59:20 AM 37.3689 -85.6170 56° Northeast 540 621 39,000  Level FlightAware ADS-B
Tue 04:59:51 AM 37.4120 -85.5367 56° Northeast 541 623 39,000  Level FlightAware ADS-B
Tue 05:00:21 AM 37.4544 -85.4589 56° Northeast 541 623 39,000  Level FlightAware ADS-B
Tue 05:00:52 AM 37.4983 -85.3785 55° Northeast 540 621 39,000  Level FlightAware ADS-B
Tue 05:01:23 AM 37.5417 -85.2978 56° Northeast 540 621 39,000  Level FlightAware ADS-B
Tue 05:01:54 AM 37.5846 -85.2195 55° Northeast 541 623 39,000  Level FlightAware ADS-B
Tue 05:02:24 AM 37.6272 -85.1385 56° Northeast 542 624 39,000  Level FlightAware ADS-B
Tue 05:02:58 AM 37.6755 -85.0498 55° Northeast 541 623 39,000  Level FlightAware ADS-B
Tue 05:03:29 AM 37.7189 -84.9684 56° Northeast 541 623 39,000  Level FlightAware ADS-B
Tue 05:04:24 AM 37.7958 -84.8244 56° Northeast 541 623 39,000  Level FlightAware ADS-B
Tue 05:05:06 AM 37.8530 -84.7170 56° Northeast 540 621 39,000  Level FlightAware ADS-B
Tue 05:05:53 AM 37.9170 -84.5930 57° Northeast 540 621 39,000  Level FlightAware ADS-B
Tue 05:06:34 AM 37.9740 -84.4850 56° Northeast 541 623 39,000  Level FlightAware ADS-B
Tue 05:07:27 AM 38.0410 -84.3590 56° Northeast 542 624 39,000  Level FlightAware ADS-B
Tue 05:08:15 AM 38.0980 -84.2510 56° Northeast 542 624 39,000  Level FlightAware ADS-B
Tue 05:08:52 AM 38.1430 -84.1680 55° Northeast 542 624 39,000  Level FlightAware ADS-B
Tue 05:09:30 AM 38.1880 -84.0820 56° Northeast 542 624 39,000  Level FlightAware ADS-B
Tue 05:10:30 AM 38.2590 -83.9470 56° Northeast 542 624 39,000  Level FlightAware ADS-B
Tue 05:12:10 AM 38.3780 -83.7220 56° Northeast 542 624 39,000  Level FlightAware ADS-B
Tue 05:12:58 AM 38.4360 -83.6140 56° Northeast 542 624 39,000  Level FlightAware ADS-B
Tue 05:13:34 AM 38.5310 -83.4100 59° Northeast 545 627 39,000  Level FlightAware ADS-B
Tue 05:14:16 AM 38.6150 -83.2460 57° Northeast 544 626 39,000  Level FlightAware ADS-B
Tue 05:15:00 AM 38.6740 -83.1300 57° Northeast 543 625 39,000  Level FlightAware ADS-B
Tue 05:16:22 AM 38.7550 -82.9670 57° Northeast 542 624 39,000  Level FlightAware ADS-B
Tue 05:17:04 AM 38.8420 -82.7940 57° Northeast 544 626 39,000  Level FlightAware ADS-B
Tue 05:17:44 AM 38.8960 -82.6850 57° Northeast 544 626 39,000  Level FlightAware ADS-B
Tue 05:18:29 AM 38.9570 -82.5630 57° Northeast 545 627 39,000  Level FlightAware ADS-B
Tue 05:19:10 AM 39.0120 -82.4510 58° Northeast 546 628 39,000  Level FlightAware ADS-B
Tue 05:19:50 AM 39.0680 -82.3380 57° Northeast 547 629 39,000  Level FlightAware ADS-B
Tue 05:20:49 AM 39.1390 -82.1950 57° Northeast 548 631 39,000  Level FlightAware ADS-B
Tue 05:21:29 AM 39.2010 -82.0650 58° Northeast 549 632 39,000  Level FlightAware ADS-B
Tue 05:22:09 AM 39.2560 -81.9540 57° Northeast 549 632 39,000  Level FlightAware ADS-B
Tue 05:22:51 AM 39.3120 -81.8400 58° Northeast 550 633 39,000  Level FlightAware ADS-B
Tue 05:23:36 AM 39.3720 -81.7150 58° Northeast 551 634 39,000  Level FlightAware ADS-B
Tue 05:24:15 AM 39.4240 -81.6060 58° Northeast 550 633 39,000  Level FlightAware ADS-B
Tue 05:24:59 AM 39.4830 -81.4830 58° Northeast 550 633 39,000  Level FlightAware ADS-B
Tue 05:25:35 AM 39.5290 -81.3880 58° Northeast 548 631 39,000  Level FlightAware ADS-B
Tue 05:26:22 AM 39.5930 -81.2540 58° Northeast 548 631 39,000  Level FlightAware ADS-B
Tue 05:27:05 AM 39.6500 -81.1340 58° Northeast 548 631 39,000  Level FlightAware ADS-B
Tue 05:28:02 AM 39.7280 -80.9680 59° Northeast 549 632 39,000  Level FlightAware ADS-B
Tue 05:28:45 AM 39.7770 -80.8660 58° Northeast 549 632 39,000  Level FlightAware ADS-B
Tue 05:29:22 AM 39.8340 -80.7430 59° Northeast 549 632 39,000  Level FlightAware ADS-B
Tue 05:30:00 AM 39.8840 -80.6360 59° Northeast 550 633 39,000  Level FlightAware ADS-B
Tue 05:31:01 AM 39.9630 -80.4650 59° Northeast 550 633 39,000  Level FlightAware ADS-B
Tue 05:31:46 AM 40.0230 -80.3350 59° Northeast 550 633 39,000  Level FlightAware ADS-B
Tue 05:32:27 AM 40.0740 -80.2240 59° Northeast 550 633 39,000  Level FlightAware ADS-B
Tue 05:33:09 AM 40.1300 -80.1020 59° Northeast 549 632 39,000  Level FlightAware ADS-B
Tue 05:33:50 AM 40.1850 -79.9820 59° Northeast 550 633 39,000  Level FlightAware ADS-B
Tue 05:34:35 AM 40.2430 -79.8560 59° Northeast 550 633 39,000  Level FlightAware ADS-B
Tue 05:35:11 AM 40.2900 -79.7530 59° Northeast 550 633 39,000  Level FlightAware ADS-B
Tue 05:35:48 AM 40.3360 -79.6500 60° Northeast 550 633 39,000  Level FlightAware ADS-B
Tue 05:36:32 AM 40.3940 -79.5210 59° Northeast 550 633 39,000  Level FlightAware ADS-B
Tue 05:37:07 AM 40.4380 -79.4230 59° Northeast 551 634 39,000  Level FlightAware ADS-B
Tue 05:37:57 AM 40.5040 -79.2760 59° Northeast 552 635 39,000  Level FlightAware ADS-B
Tue 05:38:37 AM 40.5550 -79.1600 60° Northeast 553 636 39,000  Level FlightAware ADS-B
Tue 05:39:17 AM 40.6070 -79.0440 59° Northeast 553 636 39,000  Level FlightAware ADS-B
Tue 05:40:01 AM 40.6540 -78.9360 60° Northeast 553 636 39,000  Level FlightAware ADS-B
Tue 05:40:47 AM 40.7060 -78.8200 59° Northeast 553 636 39,000  Level FlightAware ADS-B
Tue 05:41:24 AM 40.7620 -78.6920 60° Northeast 553 636 39,000  Level FlightAware ADS-B
Tue 05:42:04 AM 40.8150 -78.5720 60° Northeast 553 636 39,000  Level FlightAware ADS-B
Tue 05:42:49 AM 40.8710 -78.4430 60° Northeast 554 638 39,000  Level FlightAware ADS-B
Tue 05:43:34 AM 40.9290 -78.3110 60° Northeast 554 638 39,000  Level FlightAware ADS-B
Tue 05:44:14 AM 40.9810 -78.1900 60° Northeast 555 639 39,000  Level FlightAware ADS-B
Tue 05:44:54 AM 41.0310 -78.0720 61° Northeast 554 638 39,000  Level FlightAware ADS-B
Tue 05:45:45 AM 41.1027 -77.9034 61° Northeast 555 639 39,000  Level FlightAware ADS-B
Tue 05:46:22 AM 41.1499 -77.7936 60° Northeast 556 640 39,000  Level FlightAware ADS-B
Tue 05:46:53 AM 41.1889 -77.7019 61° Northeast 555 639 39,000  Level FlightAware ADS-B
Tue 05:47:31 AM 41.2362 -77.5894 61° Northeast 553 636 39,000 -171 Level FlightAware ADS-B
Tue 05:48:03 AM 41.2756 -77.4953 61° Northeast 550 633 38,800 -750 Descending FlightAware ADS-B
Tue 05:48:35 AM 41.3153 -77.4018 60° Northeast 543 625 38,200 -1,219 Descending FlightAware ADS-B
Tue 05:49:07 AM 41.3539 -77.3087 61° Northeast 543 625 37,500 -1,452 Descending FlightAware ADS-B
Tue 05:49:37 AM 41.3916 -77.2203 60° Northeast 549 632 36,700 -1,355 Descending FlightAware ADS-B
Tue 05:50:09 AM 41.4306 -77.1260 61° Northeast 548 631 36,100 -1,524 Descending FlightAware ADS-B
Tue 05:50:40 AM 41.4678 -77.0372 61° Northeast 553 636 35,100 -1,770 Descending FlightAware ADS-B
Tue 05:51:10 AM 41.5057 -76.9444 61° Northeast 555 639 34,300 -1,672 Descending FlightAware ADS-B
Tue 05:51:41 AM 41.5435 -76.8513 61° Northeast 556 640 33,400 -1,967 Descending FlightAware ADS-B
Tue 05:52:11 AM 41.5814 -76.7606 61° Northeast 562 647 32,300 -2,129 Descending FlightAware ADS-B
Tue 05:52:43 AM 41.6217 -76.6625 61° Northeast 567 652 31,200 -2,747 Descending FlightAware ADS-B
Tue 05:53:34 AM 41.6850 -76.5069 61° Northeast 558 642 28,500 -3,253 Descending FlightAware ADS-B
Tue 05:54:06 AM 41.7240 -76.4104 62° Northeast 553 636 26,700 -2,857 Descending FlightAware ADS-B
Tue 05:54:37 AM 41.7609 -76.3190 62° Northeast 532 612 25,500 -1,688 Descending FlightAware ADS-B
Tue 05:55:42 AM 41.8353 -76.1341 62° Northeast 521 600 24,000 -783 Descending FlightAware ADS-B
Tue 05:56:32 AM 41.8320 -76.1460 250° West 525 604 24,000  Level FlightAware ADS-B
Tue 05:57:10 AM 41.9300 -75.8980 62° Northeast 527 606 24,000  Level FlightAware ADS-B
Tue 05:57:52 AM 41.9740 -75.7880 62° Northeast 528 608 24,000  Level FlightAware ADS-B
Tue 05:58:38 AM 42.0370 -75.6310 62° Northeast 531 611 24,000  Level FlightAware ADS-B
Tue 05:59:34 AM 42.1030 -75.4610 62° Northeast 534 615 24,000  Level FlightAware ADS-B
Tue 06:00:14 AM 42.1490 -75.3460 62° Northeast 537 618 24,000  Level FlightAware ADS-B
Tue 06:00:54 AM 42.1540 -75.3310 66° East 537 618 24,000  Level FlightAware ADS-B
Tue 06:01:41 AM 42.2480 -75.0890 62° Northeast 530 610 24,000 -202 Level FlightAware ADS-B
Tue 06:02:23 AM 42.2910 -74.9810 62° Northeast 527 606 23,700 -225 Descending FlightAware ADS-B
Tue 06:03:01 AM 42.3280 -74.8870 62° Northeast 527 606 23,700  Level FlightAware ADS-B
Tue 06:03:38 AM 42.3640 -74.7950 62° Northeast 527 606 23,700  Level FlightAware ADS-B
Tue 06:04:28 AM 42.4120 -74.6710 62° Northeast 527 606 23,700  Level FlightAware ADS-B
Tue 06:05:04 AM 42.4470 -74.5820 62° Northeast 527 606 23,700 -8,000 Level FlightAware ADS-B
Tue 06:06:07 AM 42.5086 -74.3919 62° Northeast 435 501 10,500 -6,585 Descending Boston Center
Tue 06:07:07 AM 42.5214 -74.2600 82° East 371 427 10,200 -800 Descending Boston Center
Tue 06:08:07 AM 42.5314 -74.1531 83° East 327 376 8,900 -1,850 Descending Boston Center
Tue 06:09:07 AM 42.5372 -74.0322 86° East 305 351 6,500 -2,000 Descending Boston Center
Tue 06:10:07 AM 42.5469 -73.9394 82° East 277 319 4,900 -1,550 Descending Boston Center
Tue 06:11:07 AM 42.5522 -73.8408 86° East 246 283 3,400 -950 Descending Boston Center
Tue 06:12:07 AM 42.5881 -73.8050 36° Northeast 175 201 3,000 -450 Descending Boston Center
Tue 06:13:07 AM 42.6403 -73.7919 10° North 161 185 2,500 -800 Descending Boston Center
Tue 06:14:22 AM 42.6881 -73.8044 349° North 128 147 1,200 -837 Descending Boston Center
Tue 06:15:16 AM 42.7214 -73.8078 356° North 111 128 700 -556 Descending Boston Center

Login

Don't have an account? Register now (free) for customized features, flight alerts, and more!